»·PEaware :: N37AF MYAF-KLSV

N37AF :: MYAF-KLSV

FLIGHT INFORMATION

Flight Status: Arrived
Operator: Privately registered:
United States
More flights under this callsign
Pilot: Alan J. (5709)
Aircraft: GATES LEARJET LEARJET 35/36
(LJ35)
More flights by this aircraft type
Origin: MYAF Andros Town Intl
Bahamas
Destination: KLSV Nellis AFB
United States
More flights between these airports :: More routes between these airports
Route: +NICKO CYY Q102 LEV J86 JCT J15 ABQ J72 GUP J72 PGS BEALE
File this flight plan on PilotEdge
Remarks: ZLA Coverage Only
Altitude:
(Current/Filed)
43,000ft
Speed:
(Current/Filed)
450kts
Departed: 19-Jun-18 11:06 AM
Arrived: 19-Jun-18 11:43 AM
Distance/Time
Traveled:
2031nm/0:37
Distance/Time
To Go:
Arrived

Flight Plot

Page will automatically refresh every two minutes.

Flight plan parsing failed; only flown route is shown


Map Options




Map Legend


Flown Route
Filed Route
Departure Airport
Arrival Airport
Navaid (VOR, NDB)
Fix

Horizontal Profiles

Position Reports

Time Latitude Longitude Heading Altitude Ground
Speed
19-Jun-18 11:05 35.592620 -112.048760 275 43291ft 404kts
19-Jun-18 11:06 35.597118 -112.186659 276 43293ft 404kts
19-Jun-18 11:07 35.601580 -112.324957 276 43293ft 404kts
19-Jun-18 11:08 35.604488 -112.462946 275 43292ft 404kts
19-Jun-18 11:09 35.606647 -112.601073 275 43293ft 404kts
19-Jun-18 11:10 35.609071 -112.739263 275 41717ft 399kts
19-Jun-18 11:11 35.611340 -112.872805 275 39319ft 384kts
19-Jun-18 11:12 35.613674 -113.001648 275 36923ft 372kts
19-Jun-18 11:13 35.616684 -113.127133 275 34517ft 362kts
19-Jun-18 11:14 35.619499 -113.252080 274 32123ft 373kts
19-Jun-18 11:15 35.621536 -113.381850 273 29722ft 383kts
19-Jun-18 11:16 35.624931 -113.513451 280 27325ft 385kts
19-Jun-18 11:17 35.663323 -113.634909 296 24934ft 374kts
19-Jun-18 11:18 35.711559 -113.743629 297 22526ft 351kts
19-Jun-18 11:19 35.757746 -113.846908 297 20293ft 336kts
19-Jun-18 11:20 35.801239 -113.944866 297 20169ft 319kts
19-Jun-18 11:21 35.843360 -114.040383 297 20167ft 314kts
19-Jun-18 11:22 35.884877 -114.135777 297 19155ft 320kts
19-Jun-18 11:23 35.926685 -114.233319 297 17462ft 323kts
19-Jun-18 11:24 35.968313 -114.330075 297 15756ft 313kts
19-Jun-18 11:25 36.009047 -114.424263 298 14059ft 310kts
19-Jun-18 11:26 36.049636 -114.518005 298 12362ft 310kts
19-Jun-18 11:27 36.091288 -114.611634 300 10658ft 310kts
19-Jun-18 11:28 36.130275 -114.702697 301 8961ft 287kts
19-Jun-18 11:29 36.177522 -114.778886 309 8024ft 279kts
19-Jun-18 11:30 36.227153 -114.854136 309 7968ft 283kts
19-Jun-18 11:31 36.275818 -114.930855 309 7967ft 283kts
19-Jun-18 11:32 36.324820 -115.007206 309 7966ft 283kts
19-Jun-18 11:33 36.354514 -115.097717 287 7965ft 284kts
19-Jun-18 11:34 36.389475 -115.182766 327 7976ft 278kts
19-Jun-18 11:35 36.447761 -115.162131 67 7990ft 229kts
19-Jun-18 11:36 36.435325 -115.092131 110 7971ft 194kts
19-Jun-18 11:37 36.415275 -115.037635 112 7353ft 154kts
19-Jun-18 11:38 36.385206 -115.006763 148 6477ft 136kts
19-Jun-18 11:39 36.350387 -114.989867 159 5292ft 134kts
19-Jun-18 11:40 36.314633 -114.977704 163 4106ft 133kts
19-Jun-18 11:41 36.280317 -114.989406 216 2855ft 132kts
19-Jun-18 11:42 36.253831 -115.017654 218 2020ft 123kts
19-Jun-18 11:43 36.235956 -115.036849 221 1873ft 23kts
19-Jun-18 11:44 36.235083 -115.038969 311 1873ft 0kts
19-Jun-18 11:45 36.236241 -115.038845 42 1873ft 8kts
19-Jun-18 11:46 36.238755 -115.036030 41 1873ft 15kts
19-Jun-18 11:47 36.241315 -115.033149 42 1873ft 3kts
19-Jun-18 11:48 36.242578 -115.031739 41 1873ft 13kts
19-Jun-18 11:49 36.244304 -115.030160 54 1873ft 8kts
19-Jun-18 11:50 36.246698 -115.029473 1 1873ft 8kts
19-Jun-18 11:51 36.247126 -115.029494 325 1873ft 2kts
19-Jun-18 11:52 36.247187 -115.031337 266 1873ft 4kts
19-Jun-18 11:53 36.246752 -115.031580 182 1873ft 1kts
19-Jun-18 11:54 36.246081 -115.031610 181 1873ft 0kts
19-Jun-18 11:55 36.246080 -115.031610 181 1873ft 0kts

Navigation Log

Ident Type
Flight plan parsing failed, navigation log unavailable